createdAt,value
2022-12-30T00:01:10.322Z,99846.04
2022-12-30T00:03:42.268Z,99848.31
2022-12-30T00:06:19.016Z,99847.09
2022-12-30T00:08:54.285Z,99847.77
2022-12-30T00:11:27.545Z,99851.66
2022-12-30T00:14:19.547Z,99852.70
2022-12-30T00:17:10.254Z,99856.39
2022-12-30T00:20:02.070Z,99857.27
2022-12-30T00:22:53.877Z,99861.52
2022-12-30T00:25:46.571Z,99861.98
2022-12-30T00:28:38.957Z,99860.61
2022-12-30T00:31:32.912Z,99853.95
2022-12-30T00:34:08.623Z,99855.73
2022-12-30T00:36:41.297Z,99855.34
2022-12-30T00:39:11.608Z,99858.35
2022-12-30T00:42:01.428Z,99854.29
2022-12-30T00:44:33.171Z,99856.77
2022-12-30T00:47:05.605Z,99864.59
2022-12-30T00:49:55.351Z,99871.97
2022-12-30T00:52:44.746Z,99869.31
2022-12-30T00:55:33.996Z,99872.17
2022-12-30T00:58:05.978Z,99882.58
2022-12-30T01:00:38.058Z,99887.80
2022-12-30T01:03:10.005Z,99886.95
2022-12-30T01:05:42.664Z,99896.18
2022-12-30T01:08:14.690Z,99901.56
2022-12-30T01:10:46.711Z,99893.78
2022-12-30T01:13:18.971Z,99885.17
2022-12-30T01:15:50.734Z,99890.45
2022-12-30T01:18:22.717Z,99883.83
2022-12-30T01:20:54.539Z,99881.70
2022-12-30T01:23:26.279Z,99875.84
2022-12-30T01:26:00.882Z,99877.55
2022-12-30T01:28:34.397Z,99885.79
2022-12-30T01:31:10.030Z,99893.95
2022-12-30T01:33:41.726Z,99901.50
2022-12-30T01:36:13.456Z,99898.55
2022-12-30T01:38:45.660Z,99898.98
2022-12-30T01:41:17.561Z,99903.79
2022-12-30T01:43:51.449Z,99910.98
2022-12-30T01:46:26.583Z,99910.75
2022-12-30T01:49:00.432Z,99912.26
2022-12-30T01:51:34.404Z,99916.36
2022-12-30T01:54:06.710Z,99916.70
2022-12-30T01:56:42.665Z,99920.45
2022-12-30T01:59:17.879Z,99929.27
2022-12-30T02:01:50.675Z,99935.13
2022-12-30T02:04:26.569Z,99931.59
2022-12-30T02:07:06.031Z,99933.73
2022-12-30T02:09:38.916Z,99936.27
2022-12-30T02:12:11.999Z,99935.43
2022-12-30T02:14:46.817Z,99933.52
2022-12-30T02:17:31.885Z,99933.11
2022-12-30T02:20:39.833Z,99935.26
2022-12-30T02:23:38.914Z,99937.07
2022-12-30T02:26:56.176Z,99934.17
2022-12-30T02:29:51.435Z,99928.42
2022-12-30T02:32:28.338Z,99920.80
2022-12-30T02:35:09.107Z,99925.58
2022-12-30T02:37:48.639Z,99932.45
2022-12-30T02:40:28.046Z,99938.88
2022-12-30T02:43:22.348Z,99941.27
2022-12-30T02:45:59.092Z,99943.36
2022-12-30T02:48:33.705Z,99943.10
2022-12-30T02:51:25.470Z,99946.31
2022-12-30T02:53:57.228Z,99953.30
2022-12-30T02:56:28.960Z,99955.29
2022-12-30T02:59:15.957Z,99952.77
2022-12-30T03:02:18.856Z,99954.94
2022-12-30T03:05:04.934Z,99958.80
2022-12-30T03:07:45.421Z,99956.67
2022-12-30T03:10:41.134Z,99949.02
2022-12-30T03:13:19.706Z,99943.80
2022-12-30T03:15:57.285Z,99950.25
2022-12-30T03:18:31.141Z,99957.33
2022-12-30T03:21:06.948Z,99952.38
2022-12-30T03:24:00.208Z,99961.45
2022-12-30T03:26:49.696Z,99965.52
2022-12-30T03:29:25.608Z,99970.18
2022-12-30T03:31:58.290Z,99966.60
2022-12-30T03:34:30.622Z,99976.31
2022-12-30T03:37:11.273Z,99976.86
2022-12-30T03:39:47.096Z,99985.34
2022-12-30T03:42:20.974Z,99990.85
2022-12-30T03:44:53.860Z,99989.36
2022-12-30T03:47:25.910Z,99994.14
2022-12-30T03:49:57.810Z,99999.20
2022-12-30T03:52:29.680Z,100004.21
2022-12-30T03:55:01.483Z,100011.60
2022-12-30T03:57:33.506Z,100012.40
2022-12-30T04:00:08.467Z,100015.65
2022-12-30T04:02:44.299Z,100016.77
2022-12-30T04:05:16.492Z,100022.36
2022-12-30T04:07:48.903Z,100026.46
2022-12-30T04:10:20.823Z,100028.93
2022-12-30T04:12:52.832Z,100031.63
2022-12-30T04:15:24.833Z,100035.83
2022-12-30T04:17:56.542Z,100034.92
2022-12-30T04:20:28.384Z,100043.80
2022-12-30T04:23:01.092Z,100048.15
2022-12-30T04:25:32.843Z,100056.95
2022-12-30T04:28:04.609Z,100055.31
2022-12-30T04:30:36.834Z,100054.73
2022-12-30T04:33:08.847Z,100056.83
2022-12-30T04:35:40.598Z,100060.39
2022-12-30T04:38:12.440Z,100068.16
2022-12-30T04:40:44.174Z,100069.45
2022-12-30T04:43:16.030Z,100068.63
2022-12-30T04:45:48.416Z,100074.52
2022-12-30T04:48:20.108Z,100077.10
2022-12-30T04:50:52.071Z,100084.36
2022-12-30T04:53:24.349Z,100083.39
2022-12-30T04:55:57.101Z,100087.27
2022-12-30T04:58:28.883Z,100090.73
2022-12-30T05:01:00.926Z,100092.15
2022-12-30T05:03:32.920Z,100097.21
2022-12-30T05:06:04.782Z,100101.86
2022-12-30T05:08:36.616Z,100110.34
2022-12-30T05:11:08.805Z,100110.68
2022-12-30T05:13:46.287Z,100111.70
2022-12-30T05:16:18.970Z,100115.67
2022-12-30T05:18:50.915Z,100114.77
2022-12-30T05:21:22.812Z,100122.46
2022-12-30T05:24:11.917Z,100116.48
2022-12-30T05:26:43.716Z,100117.88
2022-12-30T05:29:16.011Z,100122.73
2022-12-30T05:31:47.707Z,100128.63
2022-12-30T05:34:19.645Z,100130.02
2022-12-30T05:36:54.327Z,100132.54
2022-12-30T05:39:26.140Z,100132.88
2022-12-30T05:41:57.871Z,100139.35
2022-12-30T05:44:29.707Z,100142.92
2022-12-30T05:47:01.785Z,100146.10
2022-12-30T05:49:33.612Z,100147.26
2022-12-30T05:52:05.416Z,100150.71
2022-12-30T05:54:37.665Z,100151.92
2022-12-30T05:57:09.458Z,100160.20
2022-12-30T05:59:41.266Z,100155.30
2022-12-30T06:02:13.144Z,100162.59
2022-12-30T06:04:44.964Z,100166.27
2022-12-30T06:07:16.737Z,100174.95
2022-12-30T06:09:48.440Z,100184.35
2022-12-30T06:12:21.828Z,100187.36
2022-12-30T06:14:53.623Z,100197.48
2022-12-30T06:17:25.779Z,100197.87
2022-12-30T06:19:57.540Z,100202.17
2022-12-30T06:22:29.251Z,100205.05
2022-12-30T06:25:01.130Z,100216.22
2022-12-30T06:27:33.141Z,100212.09
2022-12-30T06:30:05.540Z,100217.66
2022-12-30T06:32:37.441Z,100219.80
2022-12-30T06:35:10.680Z,100224.25
2022-12-30T06:37:42.476Z,100225.73
2022-12-30T06:40:15.596Z,100222.69
2022-12-30T06:42:47.385Z,100228.63
2022-12-30T06:45:19.189Z,100232.02
2022-12-30T06:47:51.682Z,100238.91
2022-12-30T06:50:23.818Z,100243.20
2022-12-30T06:52:55.612Z,100245.30
2022-12-30T06:55:32.546Z,100252.67
2022-12-30T06:58:07.819Z,100259.77
2022-12-30T07:00:39.614Z,100264.86
2022-12-30T07:03:12.837Z,100272.14
2022-12-30T07:05:44.939Z,100270.00
2022-12-30T07:08:16.744Z,100274.81
2022-12-30T07:10:51.947Z,100279.13
2022-12-30T07:13:24.255Z,100285.25
2022-12-30T07:15:56.280Z,100292.67
2022-12-30T07:18:28.652Z,100295.31
2022-12-30T07:21:00.465Z,100297.95
2022-12-30T07:23:32.272Z,100303.88
2022-12-30T07:26:04.185Z,100305.26
2022-12-30T07:28:35.948Z,100309.59
2022-12-30T07:31:07.961Z,100307.21
2022-12-30T07:33:39.696Z,100311.79
2022-12-30T07:36:11.764Z,100311.36
2022-12-30T07:38:43.962Z,100316.59
2022-12-30T07:41:15.738Z,100321.23
2022-12-30T07:43:47.482Z,100333.17
2022-12-30T07:46:19.589Z,100336.96
2022-12-30T07:48:51.743Z,100348.70
2022-12-30T07:51:23.549Z,100350.27
2022-12-30T07:53:55.261Z,100356.39
2022-12-30T07:56:27.110Z,100359.45
2022-12-30T07:58:59.998Z,100360.55
2022-12-30T08:01:32.609Z,100366.28
2022-12-30T08:04:26.059Z,100371.81
2022-12-30T08:06:54.628Z,100378.94
2022-12-30T08:09:26.483Z,100380.84
2022-12-30T08:11:58.367Z,100383.24
2022-12-30T08:14:30.256Z,100392.36
2022-12-30T08:17:02.061Z,100397.48
2022-12-30T08:19:34.115Z,100399.34
2022-12-30T08:22:05.872Z,100404.76
2022-12-30T08:24:37.642Z,100408.02
2022-12-30T08:27:09.347Z,100406.14
2022-12-30T08:29:41.056Z,100416.17
2022-12-30T08:32:12.935Z,100417.29
2022-12-30T08:34:44.674Z,100426.73
2022-12-30T08:37:16.512Z,100434.44
2022-12-30T08:39:49.103Z,100443.01
2022-12-30T08:42:21.203Z,100454.48
2022-12-30T08:44:53.359Z,100454.85
2022-12-30T08:47:25.228Z,100455.34
2022-12-30T08:49:57.260Z,100453.81
2022-12-30T08:52:29.695Z,100462.88
2022-12-30T08:55:01.584Z,100465.34
2022-12-30T08:57:34.009Z,100472.91
2022-12-30T09:00:07.340Z,100476.98
2022-12-30T09:02:39.434Z,100483.56
2022-12-30T09:05:12.423Z,100484.67
2022-12-30T09:07:59.186Z,100487.21
2022-12-30T09:10:31.156Z,100489.41
2022-12-30T09:13:03.147Z,100489.80
2022-12-30T09:15:35.088Z,100486.39
2022-12-30T09:18:07.748Z,100483.25
2022-12-30T09:20:39.779Z,100486.77
2022-12-30T09:23:11.728Z,100491.40
2022-12-30T09:25:43.623Z,100491.33
2022-12-30T09:28:15.455Z,100497.66
2022-12-30T09:30:47.340Z,100492.83
2022-12-30T09:33:19.145Z,100491.51
2022-12-30T09:35:51.058Z,100495.94
2022-12-30T09:38:23.077Z,100497.52
2022-12-30T09:41:00.631Z,100496.46
2022-12-30T09:43:39.003Z,100494.17
2022-12-30T09:46:47.802Z,100491.13
2022-12-30T09:49:27.318Z,100489.48
2022-12-30T09:52:08.309Z,100486.24
2022-12-30T09:54:42.693Z,100482.59
2022-12-30T09:57:34.338Z,100483.53
2022-12-30T10:00:14.599Z,100485.15
2022-12-30T10:03:01.109Z,100486.34
2022-12-30T10:05:53.454Z,100479.09
2022-12-30T10:08:35.778Z,100476.01
2022-12-30T10:11:28.060Z,100476.51
2022-12-30T10:14:08.710Z,100467.41
2022-12-30T10:16:56.445Z,100468.50
2022-12-30T10:19:41.425Z,100466.54
2022-12-30T10:22:23.763Z,100462.77
2022-12-30T10:25:11.234Z,100456.45
2022-12-30T10:27:47.257Z,100449.20
2022-12-30T10:30:22.604Z,100441.60
2022-12-30T10:33:01.005Z,100439.77
2022-12-30T10:35:34.814Z,100437.08
2022-12-30T10:38:14.009Z,100447.46
2022-12-30T10:40:56.171Z,100445.86
2022-12-30T10:43:40.975Z,100453.20
2022-12-30T10:46:25.939Z,100459.37
2022-12-30T10:49:13.220Z,100459.80
2022-12-30T10:51:45.126Z,100455.67
2022-12-30T10:54:17.637Z,100465.20
2022-12-30T10:56:51.689Z,100467.23
2022-12-30T10:59:26.590Z,100473.73
2022-12-30T11:02:16.133Z,100464.82
2022-12-30T11:04:48.093Z,100469.27
2022-12-30T11:07:21.458Z,100468.61
2022-12-30T11:09:55.814Z,100464.82
2022-12-30T11:12:51.611Z,100454.48
2022-12-30T11:15:26.373Z,100457.05
2022-12-30T11:18:00.171Z,100457.61
2022-12-30T11:20:39.090Z,100461.71
2022-12-30T11:23:26.780Z,100465.30
2022-12-30T11:26:00.938Z,100464.92
2022-12-30T11:28:38.211Z,100464.13
2022-12-30T11:31:13.066Z,100463.98
2022-12-30T11:33:51.209Z,100461.74
2022-12-30T11:36:33.699Z,100466.17
2022-12-30T11:39:28.042Z,100459.17
2022-12-30T11:42:02.974Z,100461.46
2022-12-30T11:44:35.270Z,100455.67
2022-12-30T11:47:12.524Z,100454.84
2022-12-30T11:49:52.031Z,100447.91
2022-12-30T11:52:27.771Z,100440.40
2022-12-30T11:55:02.023Z,100436.11
2022-12-30T11:57:36.897Z,100439.29
2022-12-30T12:00:29.353Z,100435.63
2022-12-30T12:03:06.115Z,100432.20
2022-12-30T12:05:43.221Z,100431.48
2022-12-30T12:08:24.434Z,100423.52
2022-12-30T12:10:58.900Z,100429.14
2022-12-30T12:13:39.866Z,100432.52
2022-12-30T12:16:17.057Z,100428.30
2022-12-30T12:18:56.793Z,100418.77
2022-12-30T12:21:31.184Z,100419.21
2022-12-30T12:24:14.336Z,100419.16
2022-12-30T12:26:50.882Z,100421.52
2022-12-30T12:29:24.147Z,100433.59
2022-12-30T12:32:38.360Z,100437.49
2022-12-30T12:35:11.248Z,100443.27
2022-12-30T12:37:55.359Z,100446.84
2022-12-30T12:40:42.422Z,100449.85
2022-12-30T12:43:22.155Z,100449.17
2022-12-30T12:46:14.792Z,100448.20
2022-12-30T12:49:07.724Z,100442.67
2022-12-30T12:51:53.693Z,100441.40
2022-12-30T12:54:48.737Z,100446.45
2022-12-30T12:57:30.904Z,100441.21
2022-12-30T13:00:15.062Z,100446.63
2022-12-30T13:03:20.894Z,100444.39
2022-12-30T13:06:00.868Z,100440.63
2022-12-30T13:08:51.346Z,100443.83
2022-12-30T13:11:36.613Z,100442.13
2022-12-30T13:14:22.507Z,100445.20
2022-12-30T13:17:00.041Z,100441.27
2022-12-30T13:19:35.422Z,100438.58
2022-12-30T13:22:13.976Z,100436.08
2022-12-30T13:24:51.431Z,100434.48
2022-12-30T13:27:29.822Z,100433.52
2022-12-30T13:30:04.030Z,100434.02
2022-12-30T13:32:42.960Z,100432.30
2022-12-30T13:35:31.317Z,100431.80
2022-12-30T13:38:16.004Z,100430.63
2022-12-30T13:40:57.640Z,100430.77
2022-12-30T13:43:39.721Z,100428.13
2022-12-30T13:46:20.450Z,100425.44
2022-12-30T13:48:56.318Z,100425.11
2022-12-30T13:51:30.912Z,100429.05
2022-12-30T13:54:12.318Z,100425.42
2022-12-30T13:56:45.828Z,100423.40
2022-12-30T13:59:29.431Z,100427.33
2022-12-30T14:02:35.548Z,100423.14
2022-12-30T14:06:00.091Z,100424.34
2022-12-30T14:08:47.345Z,100421.16
2022-12-30T14:11:22.021Z,100425.45
2022-12-30T14:14:20.507Z,100424.73
2022-12-30T14:16:58.416Z,100429.67
2022-12-30T14:19:50.886Z,100432.06
2022-12-30T14:22:59.366Z,100432.65
2022-12-30T14:25:41.611Z,100437.63
2022-12-30T14:28:21.106Z,100441.55
2022-12-30T14:30:54.579Z,100448.30
2022-12-30T14:33:33.965Z,100450.42
2022-12-30T14:36:10.924Z,100451.39
2022-12-30T14:38:59.878Z,100453.22
2022-12-30T14:41:45.368Z,100456.90
2022-12-30T14:44:24.789Z,100454.14
2022-12-30T14:46:59.539Z,100449.33
2022-12-30T14:49:39.200Z,100447.57
2022-12-30T14:52:21.179Z,100445.28
2022-12-30T14:55:06.408Z,100443.02
2022-12-30T14:57:43.476Z,100445.96
2022-12-30T15:00:22.495Z,100445.70
2022-12-30T15:02:56.601Z,100445.05
2022-12-30T15:05:34.832Z,100445.88
2022-12-30T15:08:09.968Z,100442.38
2022-12-30T15:10:56.186Z,100445.77
2022-12-30T15:13:31.873Z,100441.58
2022-12-30T15:16:07.938Z,100437.66
2022-12-30T15:18:41.739Z,100438.84
2022-12-30T15:21:26.560Z,100439.95
2022-12-30T15:24:12.268Z,100441.81
2022-12-30T15:26:52.848Z,100442.98
2022-12-30T15:29:28.459Z,100439.44
2022-12-30T15:32:01.832Z,100433.02
2022-12-30T15:34:36.858Z,100420.65
2022-12-30T15:37:21.841Z,100419.98
2022-12-30T15:39:57.933Z,100421.48
2022-12-30T15:42:38.100Z,100426.89
2022-12-30T15:45:27.248Z,100422.30
2022-12-30T15:48:01.118Z,100437.30
2022-12-30T15:50:40.279Z,100446.02
2022-12-30T15:53:23.645Z,100452.88
2022-12-30T15:55:57.094Z,100451.02
2022-12-30T15:58:35.082Z,100448.90
2022-12-30T16:01:12.800Z,100452.54
2022-12-30T16:03:52.521Z,100448.81
2022-12-30T16:06:24.970Z,100440.44
2022-12-30T16:08:57.324Z,100438.25
2022-12-30T16:12:00.597Z,100432.86
2022-12-30T16:14:36.914Z,100430.38
2022-12-30T16:17:26.113Z,100427.52
2022-12-30T16:19:58.619Z,100413.38
2022-12-30T16:22:33.004Z,100413.98
2022-12-30T16:25:07.986Z,100415.48
2022-12-30T16:27:47.385Z,100404.91
2022-12-30T16:30:29.725Z,100404.59
2022-12-30T16:33:15.538Z,100401.78
2022-12-30T16:35:52.385Z,100398.39
2022-12-30T16:38:26.354Z,100402.20
2022-12-30T16:40:58.845Z,100396.46
2022-12-30T16:43:30.908Z,100393.59
2022-12-30T16:46:05.521Z,100389.31
2022-12-30T16:48:37.390Z,100393.29
2022-12-30T16:51:17.273Z,100388.77
2022-12-30T16:53:49.366Z,100383.77
2022-12-30T16:56:21.555Z,100382.33
2022-12-30T16:58:53.589Z,100373.04
2022-12-30T17:01:28.592Z,100371.60
2022-12-30T17:04:01.131Z,100368.55
2022-12-30T17:06:32.831Z,100367.48
2022-12-30T17:09:05.906Z,100366.42
2022-12-30T17:11:38.616Z,100368.75
2022-12-30T17:14:15.504Z,100364.46
2022-12-30T17:16:47.421Z,100359.09
2022-12-30T17:19:19.441Z,100360.02
2022-12-30T17:21:51.339Z,100360.94
2022-12-30T17:24:23.271Z,100360.60
2022-12-30T17:26:55.703Z,100362.24
2022-12-30T17:29:27.675Z,100360.09
2022-12-30T17:32:00.302Z,100360.14
2022-12-30T17:34:30.639Z,100361.07
2022-12-30T17:37:02.700Z,100358.92
2022-12-30T17:39:34.496Z,100351.20
2022-12-30T17:42:06.789Z,100349.44
2022-12-30T17:44:38.840Z,100353.05
2022-12-30T17:47:13.500Z,100355.77
2022-12-30T17:49:45.586Z,100349.83
2022-12-30T17:52:17.386Z,100346.07
2022-12-30T17:54:51.324Z,100352.58
2022-12-30T17:57:23.255Z,100347.73
2022-12-30T17:59:55.017Z,100345.90
2022-12-30T18:02:28.500Z,100346.13
2022-12-30T18:05:00.696Z,100343.09
2022-12-30T18:07:33.488Z,100344.53
2022-12-30T18:10:05.720Z,100347.27
2022-12-30T18:12:37.600Z,100343.54
2022-12-30T18:15:11.684Z,100341.77
2022-12-30T18:17:44.291Z,100345.05
2022-12-30T18:20:17.582Z,100346.13
2022-12-30T18:22:49.666Z,100347.96
2022-12-30T18:25:21.506Z,100339.31
2022-12-30T18:27:53.295Z,100330.31
2022-12-30T18:30:25.447Z,100327.98
2022-12-30T18:32:57.275Z,100322.45
2022-12-30T18:35:29.207Z,100314.61
2022-12-30T18:38:00.969Z,100312.79
2022-12-30T18:40:32.745Z,100315.29
2022-12-30T18:43:05.188Z,100314.96
2022-12-30T18:45:39.233Z,100303.77
2022-12-30T18:48:11.066Z,100296.63
2022-12-30T18:50:44.734Z,100291.44
2022-12-30T18:53:17.214Z,100282.64
2022-12-30T18:55:58.461Z,100288.23
2022-12-30T18:58:30.268Z,100281.98
2022-12-30T19:01:06.341Z,100274.77
2022-12-30T19:03:38.834Z,100269.93
2022-12-30T19:06:10.756Z,100265.05
2022-12-30T19:08:44.044Z,100264.91
2022-12-30T19:11:17.938Z,100255.23
2022-12-30T19:13:50.854Z,100248.80
2022-12-30T19:16:25.091Z,100238.93
2022-12-30T19:18:59.652Z,100235.85
2022-12-30T19:21:33.323Z,100230.88
2022-12-30T19:24:06.401Z,100222.98
2022-12-30T19:26:39.302Z,100221.33
2022-12-30T19:29:12.491Z,100215.45
2022-12-30T19:31:45.651Z,100208.47
2022-12-30T19:34:19.488Z,100190.39
2022-12-30T19:36:51.606Z,100175.61
2022-12-30T19:39:23.593Z,100162.67
2022-12-30T19:41:56.356Z,100167.53
2022-12-30T19:44:29.011Z,100163.10
2022-12-30T19:47:01.916Z,100154.77
2022-12-30T19:49:34.675Z,100151.16
2022-12-30T19:52:06.883Z,100149.68
2022-12-30T19:54:38.832Z,100149.14
2022-12-30T19:57:10.929Z,100150.01
2022-12-30T19:59:43.662Z,100150.03
2022-12-30T20:02:15.884Z,100162.92
2022-12-30T20:04:48.506Z,100175.84
2022-12-30T20:07:23.005Z,100178.20
2022-12-30T20:10:25.383Z,100180.75
2022-12-30T20:12:47.817Z,100179.52
2022-12-30T20:15:22.264Z,100176.09
2022-12-30T20:17:54.589Z,100167.63
2022-12-30T20:20:27.146Z,100162.17
2022-12-30T20:22:59.457Z,100151.08
2022-12-30T20:25:32.282Z,100141.70
2022-12-30T20:28:04.322Z,100150.22
2022-12-30T20:30:36.442Z,100140.58
2022-12-30T20:33:08.437Z,100145.92
2022-12-30T20:35:40.677Z,100143.73
2022-12-30T20:38:13.411Z,100138.64
2022-12-30T20:40:45.555Z,100148.75
2022-12-30T20:43:18.112Z,100153.27
2022-12-30T20:45:50.632Z,100130.62
2022-12-30T20:48:23.252Z,100115.89
2022-12-30T20:50:55.807Z,100115.21
2022-12-30T20:53:28.911Z,100113.95
2022-12-30T20:56:06.514Z,100116.40
2022-12-30T20:58:39.691Z,100116.77
2022-12-30T21:01:15.138Z,100116.20
2022-12-30T21:03:48.293Z,100110.44
2022-12-30T21:06:21.107Z,100107.55
2022-12-30T21:08:53.557Z,100105.58
2022-12-30T21:11:26.749Z,100105.94
2022-12-30T21:13:59.421Z,100112.17
2022-12-30T21:16:33.987Z,100102.45
2022-12-30T21:19:06.223Z,100088.95
2022-12-30T21:21:38.557Z,100091.09
2022-12-30T21:24:11.258Z,100090.30
2022-12-30T21:26:41.819Z,100091.05
2022-12-30T21:29:13.719Z,100095.02
2022-12-30T21:31:46.450Z,100102.33
2022-12-30T21:34:19.000Z,100100.46
2022-12-30T21:36:54.302Z,100097.55
2022-12-30T21:39:49.034Z,100083.18
2022-12-30T21:42:38.792Z,100082.06
2022-12-30T21:45:30.811Z,100067.59
2022-12-30T21:48:20.148Z,100060.17
2022-12-30T21:51:10.027Z,100067.30
2022-12-30T21:57:11.420Z,100073.60
2022-12-30T22:00:05.137Z,100076.77
2022-12-30T22:02:51.797Z,100080.18
2022-12-30T22:05:29.827Z,100076.45
2022-12-30T22:08:03.507Z,100074.06
2022-12-30T22:10:39.972Z,100063.93
2022-12-30T22:13:13.802Z,100062.08
2022-12-30T22:15:45.713Z,100058.05
2022-12-30T22:18:22.122Z,100047.95
2022-12-30T22:20:55.162Z,100041.02
2022-12-30T22:23:27.151Z,100038.47
2022-12-30T22:26:02.978Z,100035.95
2022-12-30T22:28:34.782Z,100035.50
2022-12-30T22:31:07.825Z,100030.01
2022-12-30T22:33:39.832Z,100027.98
2022-12-30T22:36:14.005Z,100027.64
2022-12-30T22:38:47.396Z,100023.73
2022-12-30T22:41:20.162Z,100018.75
2022-12-30T22:43:54.282Z,100020.91
2022-12-30T22:46:27.814Z,100020.02
2022-12-30T22:49:01.046Z,100010.55
2022-12-30T22:51:37.531Z,100004.51
2022-12-30T22:54:15.840Z,99997.75
2022-12-30T22:56:48.376Z,99992.99
2022-12-30T22:59:20.805Z,99995.15
2022-12-30T23:01:53.101Z,99996.05
2022-12-30T23:04:25.048Z,99987.40
2022-12-30T23:06:56.836Z,99980.13
2022-12-30T23:09:29.731Z,99976.83
2022-12-30T23:12:05.390Z,99970.51
2022-12-30T23:14:55.359Z,99963.81
2022-12-30T23:17:27.103Z,99958.83
2022-12-30T23:19:59.145Z,99946.52
2022-12-30T23:22:54.111Z,99946.02
2022-12-30T23:25:26.388Z,99951.02
2022-12-30T23:27:58.106Z,99950.59
2022-12-30T23:30:30.012Z,99951.90
2022-12-30T23:33:01.865Z,99947.20
2022-12-30T23:35:36.229Z,99942.23
2022-12-30T23:38:08.862Z,99940.53
2022-12-30T23:40:40.943Z,99927.10
2022-12-30T23:43:12.828Z,99927.00
2022-12-30T23:45:45.780Z,99923.45
2022-12-30T23:48:18.087Z,99911.20
2022-12-30T23:50:49.906Z,99918.09
2022-12-30T23:53:22.470Z,99915.96
2022-12-30T23:55:54.094Z,99916.08
2022-12-30T23:58:26.021Z,99915.99
